Latest Weather Observations for Laverton

IDW60801

Issued at 1:32 pm WST Monday 8 February 2016 (issued every 30 minutes, with the page automatically refreshed every 10 minutes)

About weather observations | Map of weather stations | Latest weather observations for WA | Other Formats
Station Details ID: 012305 Name: LAVERTON AERO Lat: -28.61 Lon: 122.42 Height: 464.3 m
Data from the previous 72 hours. | See also: Recent months at Laverton
Date/Time
WST
Temp
°C
App
Temp
°C
Dew
Point
Rel
Hum
%
Delta-T
°C
Wind Press
QNH
hPa
Press
MSL
hPa
Rain
since 9 am
mm
Dir
 
Spd
km/h
Gust
km/h
Spd
kts
Gust
kts
08/01:30pm 34.2 30.2 6.5 18 15.4 ESE 17 24 9 13 1018.6 1015.5 0.0
08/01:00pm 33.2 29.5 6.5 19 14.8 E 15 28 8 15 1019.1 1015.9 0.0
08/12:30pm 33.0 28.9 6.3 19 14.7 ESE 17 24 9 13 1019.5 1016.4 0.0
08/12:00pm 32.7 28.7 6.8 20 14.3 ESE 17 30 9 16 1019.9 1016.8 0.0
08/11:30am 30.8 26.3 6.0 21 13.5 ESE 19 30 10 16 1020.3 1017.2 0.0
08/11:00am 30.2 25.9 6.8 23 12.8 ESE 19 33 10 18 1020.8 1017.7 0.0
08/10:30am 29.5 25.1 7.4 25 12.2 E 20 32 11 17 1021.4 1018.3 0.0
08/10:00am 28.9 25.5 9.1 29 11.2 E 17 24 9 13 1021.7 1018.6 0.0
08/09:30am 27.5 23.8 9.3 32 10.3 E 19 28 10 15 1021.9 1018.8 0.0
08/09:00am 26.5 22.8 9.4 34 9.6 E 19 28 10 15 1021.9 1018.8 0.0
08/08:30am 24.9 20.7 9.6 38 8.6 E 22 30 12 16 1021.9 1018.8 0.0
08/08:00am 24.0 19.1 9.9 41 7.9 E 26 33 14 18 1021.8 1018.7 0.0
08/07:30am 22.4 17.5 9.9 45 6.9 E 26 35 14 19 1021.5 1018.4 0.0
08/07:00am 21.8 16.6 10.3 48 6.4 E 28 35 15 19 1021.3 1018.2 0.0
08/06:30am 20.8 15.4 9.4 48 6.2 E 28 37 15 20 1021.3 1018.2 0.0
08/06:00am 20.5 15.7 8.8 47 6.3 E 24 32 13 17 1021.1 1017.9 0.0
08/05:30am 20.3 15.7 8.0 45 6.5 E 22 28 12 15 1020.8 1017.7 0.0
08/05:00am 20.9 16.3 6.4 39 7.5 E 20 28 11 15 1020.5 1017.4 0.0
08/04:30am 21.3 16.8 6.0 37 7.9 ESE 19 24 10 13 1020.2 1017.1 0.0
08/04:00am 21.9 15.6 5.8 35 8.2 ESE 28 33 15 18 1019.9 1016.8 0.0
08/03:30am 22.5 17.0 5.9 34 8.6 ESE 24 30 13 16 1019.9 1016.8 0.0
08/03:00am 23.1 17.1 5.5 32 9.0 ESE 26 30 14 16 1019.8 1016.7 0.0
08/02:30am 23.7 17.5 6.0 32 9.2 ESE 28 35 15 19 1019.7 1016.6 0.0
08/02:00am 24.2 18.1 6.5 32 9.3 ESE 28 35 15 19 1020.0 1016.9 0.0
08/01:30am 25.0 18.4 6.2 30 9.9 ESE 30 39 16 21 1020.0 1016.9 0.0
08/01:00am 25.5 18.5 6.7 30 10.0 ESE 33 43 18 23 1020.0 1016.9 0.0
08/12:30am 25.9 19.1 7.0 30 10.2 ESE 32 41 17 22 1020.2 1017.1 0.0
08/12:00am 26.1 20.1 7.2 30 10.2 ESE 28 37 15 20 1020.5 1017.4 0.0
 
Date/Time
WST
Temp
°C
App
Temp
°C
Dew
Point
Rel
Hum
%
Delta-T
°C
Wind Press
QNH
hPa
Press
MSL
hPa
Rain
since 9 am
mm
Dir
 
Spd
km/h
Gust
km/h
Spd
kts
Gust
kts
07/11:30pm 26.7 20.5 6.2 27 10.9 ESE 28 35 15 19 1020.6 1017.5 0.0
07/11:00pm 27.2 21.7 6.0 26 11.2 ESE 24 32 13 17 1020.6 1017.5 0.0
07/10:30pm 28.0 21.7 5.6 24 11.9 ESE 28 35 15 19 1020.6 1017.5 0.0
07/10:00pm 28.4 22.3 4.6 22 12.4 ESE 26 33 14 18 1020.6 1017.5 0.0
07/09:30pm 29.0 23.5 3.8 20 13.0 ESE 22 28 12 15 1020.3 1017.2 0.0
07/09:00pm 29.7 24.4 2.9 18 13.7 ESE 20 28 11 15 1019.9 1016.8 0.0
07/08:30pm 30.1 24.7 1.5 16 14.3 ESE 19 24 10 13 1019.5 1016.4 0.0
07/08:00pm 30.6 26.1 1.9 16 14.5 ESE 15 19 8 10 1019.1 1015.9 0.0
07/07:30pm 31.6 26.1 0.9 14 15.4 ESE 19 22 10 12 1018.5 1015.4 0.0
07/07:00pm 32.5 27.1 2.5 15 15.5 ESE 20 30 11 16 1018.0 1014.9 0.0
07/06:30pm 33.5 27.5 1.3 13 16.4 ESE 22 32 12 17 1017.5 1014.4 0.0
07/06:00pm 34.1 27.9 -0.5 11 17.2 ESE 22 32 12 17 1017.0 1013.8 0.0
07/05:30pm 34.6 28.2 1.1 12 17.1 ESE 24 33 13 18 1016.7 1013.5 0.0
07/05:00pm 34.9 28.9 1.3 12 17.3 ESE 22 32 12 17 1016.3 1013.2 0.0
07/04:30pm 35.5 30.0 1.8 12 17.5 ESE 20 30 11 16 1016.0 1012.9 0.0
07/04:00pm 35.0 28.9 2.5 13 17.0 ESE 24 33 13 18 1016.0 1012.9 0.0
07/03:30pm 34.8 29.8 3.4 14 16.7 ESE 19 30 10 16 1016.0 1012.9 0.0
07/03:00pm 35.7 30.8 4.1 14 17.1 ESE 19 32 10 17 1016.1 1013.0 0.0
07/02:30pm 35.3 31.5 3.8 14 16.9 SE 13 20 7 11 1016.5 1013.3 0.0
07/02:00pm 34.5 30.1 5.0 16 16.0 ESE 17 32 9 17 1016.7 1013.5 0.0
07/01:30pm 34.0 30.7 4.6 16 15.9 ESE 11 24 6 13 1017.0 1013.8 0.0
07/01:00pm 33.4 29.7 4.2 16 15.6 ESE 13 26 7 14 1017.3 1014.2 0.0
07/12:30pm 33.0 29.3 4.7 17 15.2 ESE 13 20 7 11 1017.8 1014.7 0.0
07/12:00pm 32.8 29.1 4.6 17 15.1 ESE 13 26 7 14 1018.0 1014.9 0.0
07/11:30am 32.6 28.7 5.2 18 14.8 E 15 28 8 15 1018.5 1015.4 0.0
07/11:00am 31.8 28.1 6.1 20 14.0 ESE 15 24 8 13 1018.9 1015.7 0.0
07/10:30am 31.1 26.8 6.9 22 13.3 E 19 30 10 16 1019.1 1015.9 0.0
07/10:00am 30.0 25.2 7.2 24 12.5 ESE 22 32 12 17 1019.3 1016.2 0.0
07/09:30am 29.7 25.0 7.6 25 12.2 E 22 33 12 18 1019.5 1016.4 0.0
07/09:00am 28.5 23.0 7.7 27 11.4 E 26 35 14 19 1019.5 1016.4 0.0
07/08:30am 27.4 22.5 8.3 30 10.6 E 24 30 13 16 1019.6 1016.5 0.0
07/08:00am 26.3 21.0 8.3 32 9.9 E 26 32 14 17 1019.6 1016.5 0.0
07/07:30am 25.0 20.2 8.9 36 8.9 E 24 30 13 16 1019.5 1016.4 0.0
07/07:00am 23.4 18.2 8.7 39 8.0 E 26 30 14 16 1019.3 1016.2 0.0
07/06:30am 22.4 17.2 8.9 42 7.4 E 26 32 14 17 1019.0 1015.8 0.0
07/06:00am 21.4 17.4 9.0 45 6.7 E 20 24 11 13 1018.8 1015.6 0.0
07/05:30am 21.1 16.3 8.7 45 6.7 E 24 28 13 15 1018.3 1015.2 0.0
07/05:00am 21.4 16.9 8.7 44 6.8 E 22 26 12 14 1018.1 1015.0 0.0
07/04:30am 21.9 16.7 8.8 43 7.1 E 26 33 14 18 1017.8 1014.7 0.0
07/04:00am 22.2 17.0 9.0 43 7.2 E 26 32 14 17 1017.7 1014.6 0.0
07/03:30am 22.6 17.1 9.0 42 7.4 E 28 33 15 18 1017.4 1014.3 0.0
07/03:00am 23.1 18.0 9.1 41 7.7 E 26 32 14 17 1017.3 1014.2 0.0
07/02:30am 23.5 18.4 9.1 40 7.9 E 26 33 14 18 1017.1 1013.9 0.0
07/02:00am 23.7 18.9 8.9 39 8.1 E 24 32 13 17 1017.1 1013.9 0.0
07/01:30am 24.0 20.0 9.2 39 8.2 E 20 28 11 15 1017.0 1013.8 0.0
07/01:00am 24.3 19.9 9.1 38 8.4 ESE 22 30 12 16 1017.0 1013.8 0.0
07/12:30am 24.7 20.6 8.6 36 8.8 E 20 26 11 14 1016.9 1013.7 0.0
07/12:00am 25.1 21.0 8.6 35 9.1 ESE 20 24 11 13 1017.0 1013.8 0.0
 
Date/Time
WST
Temp
°C
App
Temp
°C
Dew
Point
Rel
Hum
%
Delta-T
°C
Wind Press
QNH
hPa
Press
MSL
hPa
Rain
since 9 am
mm
Dir
 
Spd
km/h
Gust
km/h
Spd
kts
Gust
kts
06/11:30pm 26.0 21.9 8.5 33 9.7 ESE 20 26 11 14 1016.9 1013.7 0.0
06/11:00pm 26.2 22.2 8.2 32 9.9 ESE 19 22 10 12 1017.1 1013.9 0.0
06/10:30pm 26.7 23.5 8.6 32 10.0 ESE 15 19 8 10 1017.0 1013.8 0.0
06/10:00pm 26.7 23.3 7.7 30 10.4 ESE 15 19 8 10 1017.0 1013.8 0.0
06/09:30pm 27.4 24.7 7.3 28 10.9 ESE 11 15 6 8 1016.9 1013.7 0.0
06/09:00pm 28.2 24.9 6.3 25 11.8 ESE 13 17 7 9 1016.7 1013.5 0.0
06/08:30pm 28.7 25.3 6.1 24 12.1 ESE 13 17 7 9 1016.2 1013.1 0.0
06/08:00pm 29.5 25.7 5.6 22 12.8 ESE 15 19 8 10 1015.9 1012.8 0.0
06/07:30pm 30.4 26.0 4.9 20 13.6 ESE 17 20 9 11 1015.7 1012.6 0.0
06/07:00pm 31.0 26.1 3.9 18 14.2 ESE 19 28 10 15 1015.2 1012.0 0.0
06/06:30pm 31.8 25.9 3.8 17 14.7 ESE 24 32 13 17 1014.7 1011.5 0.0
06/06:00pm 32.8 27.8 4.6 17 15.1 ESE 20 30 11 16 1014.3 1011.1 0.0
06/05:30pm 33.3 27.9 2.2 14 16.1 ESE 20 28 11 15 1013.8 1010.7 0.0
06/05:00pm 33.5 28.7 2.4 14 16.2 ESE 17 35 9 19 1013.7 1010.6 0.0
06/04:30pm 34.0 30.8 2.8 14 16.4 ESE 9 20 5 11 1013.6 1010.5 0.0
06/04:00pm 33.9 29.5 2.7 14 16.3 SE 15 22 8 12 1013.6 1010.5 0.0
06/03:30pm 33.7 28.7 1.5 13 16.5 E 17 24 9 13 1013.8 1010.7 0.0
06/03:00pm 34.1 30.1 2.8 14 16.4 SE 13 26 7 14 1014.0 1010.9 0.0
06/02:30pm 32.8 28.6 1.8 14 15.9 ESE 13 24 7 13 1014.4 1011.2 0.0
06/02:00pm 32.4 28.8 0.5 13 15.9 ESE 9 19 5 10 1014.6 1011.4 0.0
06/01:30pm 31.8 28.2 2.9 16 15.0 E 11 20 6 11 1014.9 1011.7 0.0
06/01:00pm 31.3 27.6 2.5 16 14.8 E 11 22 6 12 1015.3 1012.1 0.0
06/12:30pm 31.0 26.9 2.3 16 14.7 E 13 20 7 11 1015.7 1012.6 0.0
06/12:00pm 29.9 25.6 3.0 18 13.8 ESE 15 26 8 14 1016.1 1013.0 0.0
06/11:30am 29.8 26.8 5.8 22 12.9 E 11 22 6 12 1016.8 1013.6 0.0
06/11:00am 28.8 25.5 6.2 24 12.2 E 13 24 7 13 1017.1 1013.9 0.0
06/10:30am 28.3 24.5 5.8 24 12.0 E 15 22 8 12 1017.6 1014.5 0.0
06/10:00am 27.1 24.2 6.5 27 11.0 ESE 11 20 6 11 1017.7 1014.6 0.0
06/09:30am 26.5 23.6 6.5 28 10.7 E 11 22 6 12 1017.9 1014.8 0.0
06/09:00am 26.2 23.1 7.3 30 10.2 E 13 20 7 11 1018.0 1014.9 0.0
06/08:30am 25.8 21.7 7.9 32 9.8 ENE 19 26 10 14 1018.1 1015.0 0.0
06/08:00am 24.7 19.6 7.8 34 9.1 ENE 24 32 13 17 1018.1 1015.0 0.0
06/07:30am 23.2 18.5 7.7 37 8.3 ENE 22 30 12 16 1018.0 1014.9 0.0
06/07:00am 22.3 18.1 8.1 40 7.6 ENE 20 24 11 13 1017.8 1014.7 0.0
06/06:30am 20.5 16.6 8.5 46 6.4 ENE 19 24 10 13 1017.5 1014.4 0.0
06/06:00am 18.6 15.9 8.8 53 5.2 ENE 13 15 7 8 1017.1 1013.9 0.0
06/05:30am 17.7 15.4 9.1 57 4.6 ENE 11 15 6 8 1016.7 1013.5 0.0
06/05:00am 17.8 15.5 8.9 56 4.7 ENE 11 15 6 8 1016.2 1013.1 0.0
06/04:30am 18.3 15.6 8.8 54 5.1 E 13 17 7 9 1016.0 1012.9 0.0
06/04:00am 18.7 15.2 8.9 53 5.2 E 17 19 9 10 1015.8 1012.7 0.0
06/03:30am 19.1 15.7 9.0 52 5.4 E 17 19 9 10 1015.8 1012.7 0.0
06/03:00am 19.3 16.2 8.9 51 5.6 E 15 17 8 9 1015.8 1012.7 0.0
06/02:30am 19.9 16.8 8.9 49 5.9 E 15 19 8 10 1015.8 1012.7 0.0
06/02:00am 20.5 17.0 8.8 47 6.3 E 17 22 9 12 1015.8 1012.7 0.0
06/01:30am 21.0 16.9 8.6 45 6.7 E 20 24 11 13 1015.8 1012.7 0.0
06/01:00am 21.4 17.3 8.7 44 6.9 ENE 20 26 11 14 1015.8 1012.7 0.0
06/12:30am 21.9 17.7 8.4 42 7.3 E 20 26 11 14 1015.9 1012.8 0.0
06/12:00am 22.3 18.1 8.1 40 7.6 ESE 20 26 11 14 1016.0 1012.9 0.0
 
Date/Time
WST
Temp
°C
App
Temp
°C
Dew
Point
Rel
Hum
%
Delta-T
°C
Wind Press
QNH
hPa
Press
MSL
hPa
Rain
since 9 am
mm
Dir
 
Spd
km/h
Gust
km/h
Spd
kts
Gust
kts
05/11:30pm 22.9 18.8 7.8 38 8.1 ESE 19 24 10 13 1016.3 1013.2 0.0
05/11:00pm 23.1 19.9 8.4 39 8.0 ESE 15 19 8 10 1016.5 1013.3 0.0
05/10:30pm 23.7 20.8 8.2 37 8.4 ESE 13 19 7 10 1016.7 1013.5 0.0
05/10:00pm 24.3 21.0 7.9 35 8.9 ESE 15 19 8 10 1016.6 1013.4 0.0
05/09:30pm 25.0 22.0 7.6 33 9.4 ESE 13 17 7 9 1016.6 1013.4 0.0
05/09:00pm 25.4 21.6 7.5 32 9.7 ESE 17 22 9 12 1016.3 1013.2 0.0
05/08:30pm 25.8 22.7 7.4 31 10.0 ESE 13 17 7 9 1016.2 1013.1 0.0
05/08:00pm 26.3 22.9 7.8 31 10.1 ESE 15 19 8 10 1015.9 1012.8 0.0
05/07:30pm 27.1 23.7 7.5 29 10.7 ESE 15 20 8 11 1015.8 1012.7 0.0
05/07:00pm 27.7 23.5 7.5 28 11.1 ESE 19 24 10 13 1015.4 1012.3 0.0
05/06:30pm 28.6 24.7 7.2 26 11.7 ESE 17 26 9 14 1015.1 1011.9 0.0
05/06:00pm 29.0 24.7 7.0 25 12.0 ESE 19 26 10 14 1014.7 1011.5 0.0
05/05:30pm 29.2 25.3 7.2 25 12.1 ESE 17 26 9 14 1014.4 1011.2 0.0
05/05:00pm 29.5 26.6 8.0 26 12.0 SE 13 22 7 12 1014.3 1011.1 0.0
05/04:30pm 29.7 26.7 7.6 25 12.2 E 13 22 7 12 1014.2 1011.0 0.0
05/04:00pm 30.0 27.0 7.8 25 12.4 E 13 24 7 13 1014.4 1011.2 0.0
05/03:30pm 29.7 27.1 7.6 25 12.2 E 11 20 6 11 1014.6 1011.4 0.0
05/03:00pm 29.1 26.9 7.7 26 11.8 ESE 9 20 5 11 1014.8 1011.6 0.0
05/02:30pm 28.7 26.1 7.9 27 11.5 ESE 11 24 6 13 1015.0 1011.8 0.0
05/02:00pm 28.8 26.4 8.5 28 11.4 SE 11 20 6 11 1015.3 1012.1 0.0

Other Formats:

Comma delimited format used in spreadsheet applications
http://www.bom.gov.au/fwo/IDW60801/IDW60801.94449.axf

JavaScript Object Notation format (JSON) in row-major order
http://www.bom.gov.au/fwo/IDW60801/IDW60801.94449.json